sensor_id;sensor_type;location;lat;lon;timestamp;P1;durP1;ratioP1;P2;durP2;ratioP2
54454;SDS011;40364;52.270;10.546;2023-10-31T00:00:10;6.32;;;3.17;;
54454;SDS011;40364;52.270;10.546;2023-10-31T00:02:37;8.13;;;3.17;;
54454;SDS011;40364;52.270;10.546;2023-10-31T00:05:05;8.18;;;3.45;;
54454;SDS011;40364;52.270;10.546;2023-10-31T00:07:32;5.22;;;3.10;;
54454;SDS011;40364;52.270;10.546;2023-10-31T00:09:59;7.60;;;3.72;;
54454;SDS011;40364;52.270;10.546;2023-10-31T00:12:25;8.57;;;3.45;;
54454;SDS011;40364;52.270;10.546;2023-10-31T00:14:52;9.93;;;3.38;;
54454;SDS011;40364;52.270;10.546;2023-10-31T00:17:19;7.10;;;3.58;;
54454;SDS011;40364;52.270;10.546;2023-10-31T00:19:46;10.50;;;3.65;;
54454;SDS011;40364;52.270;10.546;2023-10-31T00:22:14;8.13;;;3.80;;
54454;SDS011;40364;52.270;10.546;2023-10-31T00:24:40;12.38;;;3.72;;
54454;SDS011;40364;52.270;10.546;2023-10-31T00:27:07;7.40;;;3.80;;
54454;SDS011;40364;52.270;10.546;2023-10-31T00:29:34;9.65;;;4.45;;
54454;SDS011;40364;52.270;10.546;2023-10-31T00:32:00;11.75;;;4.28;;
54454;SDS011;40364;52.270;10.546;2023-10-31T00:34:27;10.80;;;4.70;;
54454;SDS011;40364;52.270;10.546;2023-10-31T00:36:53;8.93;;;4.55;;
54454;SDS011;40364;52.270;10.546;2023-10-31T00:39:21;7.72;;;4.47;;
54454;SDS011;40364;52.270;10.546;2023-10-31T00:41:48;9.10;;;4.38;;
54454;SDS011;40364;52.270;10.546;2023-10-31T00:44:15;8.73;;;4.72;;
54454;SDS011;40364;52.270;10.546;2023-10-31T00:46:41;9.98;;;4.55;;
54454;SDS011;40364;52.270;10.546;2023-10-31T00:49:08;10.35;;;4.88;;
54454;SDS011;40364;52.270;10.546;2023-10-31T00:51:35;16.83;;;5.10;;
54454;SDS011;40364;52.270;10.546;2023-10-31T00:54:02;10.52;;;6.10;;
54454;SDS011;40364;52.270;10.546;2023-10-31T00:56:30;14.57;;;4.97;;
54454;SDS011;40364;52.270;10.546;2023-10-31T00:58:56;11.65;;;5.82;;
54454;SDS011;40364;52.270;10.546;2023-10-31T01:01:23;10.68;;;5.80;;
54454;SDS011;40364;52.270;10.546;2023-10-31T01:03:49;11.23;;;5.53;;
54454;SDS011;40364;52.270;10.546;2023-10-31T01:06:16;11.55;;;6.22;;
54454;SDS011;40364;52.270;10.546;2023-10-31T01:08:43;14.75;;;6.18;;
54454;SDS011;40364;52.270;10.546;2023-10-31T01:11:09;15.43;;;6.60;;
54454;SDS011;40364;52.270;10.546;2023-10-31T01:13:37;18.13;;;7.45;;
54454;SDS011;40364;52.270;10.546;2023-10-31T01:16:04;16.27;;;6.82;;
54454;SDS011;40364;52.270;10.546;2023-10-31T01:18:31;11.18;;;6.53;;
54454;SDS011;40364;52.270;10.546;2023-10-31T01:20:57;11.95;;;6.75;;
54454;SDS011;40364;52.270;10.546;2023-10-31T01:23:24;19.42;;;7.45;;
54454;SDS011;40364;52.270;10.546;2023-10-31T01:25:51;13.75;;;7.93;;
54454;SDS011;40364;52.270;10.546;2023-10-31T01:28:17;12.02;;;7.38;;
54454;SDS011;40364;52.270;10.546;2023-10-31T01:30:45;18.10;;;8.18;;
54454;SDS011;40364;52.270;10.546;2023-10-31T01:33:12;17.48;;;8.80;;
54454;SDS011;40364;52.270;10.546;2023-10-31T01:35:38;19.58;;;8.10;;
54454;SDS011;40364;52.270;10.546;2023-10-31T01:38:05;16.05;;;7.68;;
54454;SDS011;40364;52.270;10.546;2023-10-31T01:40:31;14.93;;;8.65;;
54454;SDS011;40364;52.270;10.546;2023-10-31T01:42:58;15.98;;;8.25;;
54454;SDS011;40364;52.270;10.546;2023-10-31T01:45:25;13.13;;;8.13;;
54454;SDS011;40364;52.270;10.546;2023-10-31T01:47:52;12.88;;;7.18;;
54454;SDS011;40364;52.270;10.546;2023-10-31T01:50:19;15.88;;;7.55;;
54454;SDS011;40364;52.270;10.546;2023-10-31T01:52:46;12.13;;;7.22;;
54454;SDS011;40364;52.270;10.546;2023-10-31T01:55:13;13.82;;;7.30;;
54454;SDS011;40364;52.270;10.546;2023-10-31T01:57:39;16.42;;;7.50;;
54454;SDS011;40364;52.270;10.546;2023-10-31T02:00:06;15.63;;;7.45;;
54454;SDS011;40364;52.270;10.546;2023-10-31T02:02:34;10.50;;;6.32;;
54454;SDS011;40364;52.270;10.546;2023-10-31T02:05:05;13.25;;;7.13;;
54454;SDS011;40364;52.270;10.546;2023-10-31T02:07:32;13.93;;;6.97;;
54454;SDS011;40364;52.270;10.546;2023-10-31T02:09:59;13.93;;;6.57;;
54454;SDS011;40364;52.270;10.546;2023-10-31T02:12:32;12.98;;;6.95;;
54454;SDS011;40364;52.270;10.546;2023-10-31T02:14:59;16.90;;;7.07;;
54454;SDS011;40364;52.270;10.546;2023-10-31T02:17:26;12.40;;;6.50;;
54454;SDS011;40364;52.270;10.546;2023-10-31T02:19:53;11.00;;;6.72;;
54454;SDS011;40364;52.270;10.546;2023-10-31T02:22:21;11.63;;;5.97;;
54454;SDS011;40364;52.270;10.546;2023-10-31T02:24:48;10.88;;;6.28;;
54454;SDS011;40364;52.270;10.546;2023-10-31T02:27:14;12.27;;;5.60;;
54454;SDS011;40364;52.270;10.546;2023-10-31T02:29:41;14.85;;;6.15;;
54454;SDS011;40364;52.270;10.546;2023-10-31T02:32:08;10.30;;;5.85;;
54454;SDS011;40364;52.270;10.546;2023-10-31T02:34:34;13.80;;;5.80;;
54454;SDS011;40364;52.270;10.546;2023-10-31T02:37:01;11.75;;;6.00;;
54454;SDS011;40364;52.270;10.546;2023-10-31T02:39:29;9.82;;;5.57;;
54454;SDS011;40364;52.270;10.546;2023-10-31T02:41:55;11.50;;;6.00;;
54454;SDS011;40364;52.270;10.546;2023-10-31T02:44:23;12.13;;;5.43;;
54454;SDS011;40364;52.270;10.546;2023-10-31T02:46:49;11.82;;;5.88;;
54454;SDS011;40364;52.270;10.546;2023-10-31T02:49:16;14.18;;;7.15;;
54454;SDS011;40364;52.270;10.546;2023-10-31T02:51:42;10.82;;;5.72;;
54454;SDS011;40364;52.270;10.546;2023-10-31T02:54:09;9.98;;;5.50;;
54454;SDS011;40364;52.270;10.546;2023-10-31T02:56:37;8.02;;;5.25;;
54454;SDS011;40364;52.270;10.546;2023-10-31T02:59:04;8.52;;;5.15;;
54454;SDS011;40364;52.270;10.546;2023-10-31T03:01:31;9.52;;;5.40;;
54454;SDS011;40364;52.270;10.546;2023-10-31T03:03:58;8.30;;;5.15;;
54454;SDS011;40364;52.270;10.546;2023-10-31T03:06:25;9.82;;;5.78;;
54454;SDS011;40364;52.270;10.546;2023-10-31T03:08:51;9.85;;;5.50;;
54454;SDS011;40364;52.270;10.546;2023-10-31T03:11:21;9.45;;;5.03;;
54454;SDS011;40364;52.270;10.546;2023-10-31T03:13:49;10.18;;;4.65;;
54454;SDS011;40364;52.270;10.546;2023-10-31T03:16:16;10.27;;;5.03;;
54454;SDS011;40364;52.270;10.546;2023-10-31T03:18:43;8.52;;;5.05;;
54454;SDS011;40364;52.270;10.546;2023-10-31T03:21:09;8.10;;;4.18;;
54454;SDS011;40364;52.270;10.546;2023-10-31T03:23:36;8.13;;;4.63;;
54454;SDS011;40364;52.270;10.546;2023-10-31T03:26:03;10.30;;;5.05;;
54454;SDS011;40364;52.270;10.546;2023-10-31T03:28:29;8.65;;;4.35;;
54454;SDS011;40364;52.270;10.546;2023-10-31T03:30:57;8.00;;;4.22;;
54454;SDS011;40364;52.270;10.546;2023-10-31T03:33:24;7.43;;;4.35;;
54454;SDS011;40364;52.270;10.546;2023-10-31T03:35:51;7.90;;;4.53;;
54454;SDS011;40364;52.270;10.546;2023-10-31T03:38:17;6.07;;;4.10;;
54454;SDS011;40364;52.270;10.546;2023-10-31T03:40:44;6.90;;;4.43;;
54454;SDS011;40364;52.270;10.546;2023-10-31T03:45:45;7.45;;;4.10;;
54454;SDS011;40364;52.270;10.546;2023-10-31T03:48:15;7.72;;;4.60;;
54454;SDS011;40364;52.270;10.546;2023-10-31T03:50:42;7.35;;;4.88;;
54454;SDS011;40364;52.270;10.546;2023-10-31T03:53:08;8.05;;;4.50;;
54454;SDS011;40364;52.270;10.546;2023-10-31T03:55:35;7.57;;;4.55;;
54454;SDS011;40364;52.270;10.546;2023-10-31T03:58:02;8.13;;;5.22;;
54454;SDS011;40364;52.270;10.546;2023-10-31T04:00:28;7.22;;;4.40;;
54454;SDS011;40364;52.270;10.546;2023-10-31T04:02:55;7.85;;;4.53;;
54454;SDS011;40364;52.270;10.546;2023-10-31T04:05:23;8.32;;;4.80;;
54454;SDS011;40364;52.270;10.546;2023-10-31T04:07:50;7.28;;;4.50;;
54454;SDS011;40364;52.270;10.546;2023-10-31T04:10:17;7.45;;;5.07;;
54454;SDS011;40364;52.270;10.546;2023-10-31T04:12:43;7.18;;;4.80;;
54454;SDS011;40364;52.270;10.546;2023-10-31T04:15:10;8.50;;;5.50;;
54454;SDS011;40364;52.270;10.546;2023-10-31T04:17:37;6.03;;;4.47;;
54454;SDS011;40364;52.270;10.546;2023-10-31T04:20:04;7.82;;;4.35;;
54454;SDS011;40364;52.270;10.546;2023-10-31T04:22:33;4.40;;;3.47;;
54454;SDS011;40364;52.270;10.546;2023-10-31T04:24:59;4.43;;;2.65;;
54454;SDS011;40364;52.270;10.546;2023-10-31T04:27:26;3.63;;;2.05;;
54454;SDS011;40364;52.270;10.546;2023-10-31T04:29:52;2.28;;;1.63;;
54454;SDS011;40364;52.270;10.546;2023-10-31T04:32:19;1.58;;;1.48;;
54454;SDS011;40364;52.270;10.546;2023-10-31T04:34:46;3.50;;;1.50;;
54454;SDS011;40364;52.270;10.546;2023-10-31T04:37:12;1.30;;;1.20;;
54454;SDS011;40364;52.270;10.546;2023-10-31T04:39:40;2.55;;;1.30;;
54454;SDS011;40364;52.270;10.546;2023-10-31T04:42:07;1.58;;;1.20;;
54454;SDS011;40364;52.270;10.546;2023-10-31T04:44:33;1.30;;;1.17;;
54454;SDS011;40364;52.270;10.546;2023-10-31T04:47:00;1.10;;;1.00;;
54454;SDS011;40364;52.270;10.546;2023-10-31T04:49:26;2.95;;;1.83;;
54454;SDS011;40364;52.270;10.546;2023-10-31T04:51:53;1.63;;;1.20;;
54454;SDS011;40364;52.270;10.546;2023-10-31T04:54:20;2.38;;;1.20;;
54454;SDS011;40364;52.270;10.546;2023-10-31T04:56:48;1.65;;;1.40;;
54454;SDS011;40364;52.270;10.546;2023-10-31T04:59:15;1.30;;;1.20;;
54454;SDS011;40364;52.270;10.546;2023-10-31T05:01:47;1.67;;;1.45;;
54454;SDS011;40364;52.270;10.546;2023-10-31T05:04:14;2.33;;;1.40;;
54454;SDS011;40364;52.270;10.546;2023-10-31T05:06:42;1.40;;;1.30;;
54454;SDS011;40364;52.270;10.546;2023-10-31T05:09:09;1.92;;;1.35;;
54454;SDS011;40364;52.270;10.546;2023-10-31T05:11:36;1.25;;;1.00;;
54454;SDS011;40364;52.270;10.546;2023-10-31T05:14:04;1.27;;;1.17;;
54454;SDS011;40364;52.270;10.546;2023-10-31T05:16:31;0.90;;;0.90;;
54454;SDS011;40364;52.270;10.546;2023-10-31T05:18:57;1.02;;;0.95;;
54454;SDS011;40364;52.270;10.546;2023-10-31T05:21:29;0.85;;;0.85;;
54454;SDS011;40364;52.270;10.546;2023-10-31T05:23:56;0.82;;;0.70;;
54454;SDS011;40364;52.270;10.546;2023-10-31T05:26:22;0.80;;;0.80;;
54454;SDS011;40364;52.270;10.546;2023-10-31T05:28:49;1.50;;;0.85;;
54454;SDS011;40364;52.270;10.546;2023-10-31T05:31:17;0.77;;;0.73;;
54454;SDS011;40364;52.270;10.546;2023-10-31T05:33:44;0.85;;;0.85;;
54454;SDS011;40364;52.270;10.546;2023-10-31T05:36:17;0.70;;;0.70;;
54454;SDS011;40364;52.270;10.546;2023-10-31T05:38:45;0.93;;;0.65;;
54454;SDS011;40364;52.270;10.546;2023-10-31T05:41:11;1.48;;;0.70;;
54454;SDS011;40364;52.270;10.546;2023-10-31T05:43:39;2.20;;;0.73;;
54454;SDS011;40364;52.270;10.546;2023-10-31T05:46:06;0.65;;;0.65;;
54454;SDS011;40364;52.270;10.546;2023-10-31T05:48:36;0.82;;;0.68;;
54454;SDS011;40364;52.270;10.546;2023-10-31T05:51:04;1.27;;;0.68;;
54454;SDS011;40364;52.270;10.546;2023-10-31T05:53:31;2.80;;;0.73;;
54454;SDS011;40364;52.270;10.546;2023-10-31T05:55:59;1.40;;;0.40;;
54454;SDS011;40364;52.270;10.546;2023-10-31T05:58:26;0.80;;;0.65;;
54454;SDS011;40364;52.270;10.546;2023-10-31T06:00:53;0.55;;;0.55;;
54454;SDS011;40364;52.270;10.546;2023-10-31T06:03:20;0.63;;;0.63;;
54454;SDS011;40364;52.270;10.546;2023-10-31T06:05:49;3.55;;;1.20;;
54454;SDS011;40364;52.270;10.546;2023-10-31T06:08:16;1.00;;;0.90;;
54454;SDS011;40364;52.270;10.546;2023-10-31T06:10:43;1.00;;;0.75;;
54454;SDS011;40364;52.270;10.546;2023-10-31T06:13:10;1.25;;;0.60;;
54454;SDS011;40364;52.270;10.546;2023-10-31T06:15:37;0.50;;;0.50;;
54454;SDS011;40364;52.270;10.546;2023-10-31T06:18:04;1.08;;;0.80;;
54454;SDS011;40364;52.270;10.546;2023-10-31T06:20:31;1.67;;;0.80;;
54454;SDS011;40364;52.270;10.546;2023-10-31T06:23:01;2.10;;;0.75;;
54454;SDS011;40364;52.270;10.546;2023-10-31T06:25:28;1.92;;;0.63;;
54454;SDS011;40364;52.270;10.546;2023-10-31T06:27:56;0.60;;;0.40;;
54454;SDS011;40364;52.270;10.546;2023-10-31T06:30:24;0.40;;;0.40;;
54454;SDS011;40364;52.270;10.546;2023-10-31T06:32:51;1.70;;;0.60;;
54454;SDS011;40364;52.270;10.546;2023-10-31T06:35:18;0.52;;;0.52;;
54454;SDS011;40364;52.270;10.546;2023-10-31T06:37:45;2.97;;;0.60;;
54454;SDS011;40364;52.270;10.546;2023-10-31T06:40:14;0.63;;;0.43;;
54454;SDS011;40364;52.270;10.546;2023-10-31T06:42:41;2.83;;;0.55;;
54454;SDS011;40364;52.270;10.546;2023-10-31T06:45:08;3.00;;;0.52;;
54454;SDS011;40364;52.270;10.546;2023-10-31T06:47:35;1.27;;;0.80;;
54454;SDS011;40364;52.270;10.546;2023-10-31T06:50:02;0.65;;;0.40;;
54454;SDS011;40364;52.270;10.546;2023-10-31T06:52:29;0.95;;;0.50;;
54454;SDS011;40364;52.270;10.546;2023-10-31T06:54:55;1.83;;;0.70;;
54454;SDS011;40364;52.270;10.546;2023-10-31T06:57:24;0.75;;;0.57;;
54454;SDS011;40364;52.270;10.546;2023-10-31T06:59:51;1.15;;;0.60;;
54454;SDS011;40364;52.270;10.546;2023-10-31T07:02:18;1.55;;;0.70;;
54454;SDS011;40364;52.270;10.546;2023-10-31T07:04:45;2.25;;;0.73;;
54454;SDS011;40364;52.270;10.546;2023-10-31T07:07:11;1.35;;;0.63;;
54454;SDS011;40364;52.270;10.546;2023-10-31T07:09:38;0.82;;;0.70;;
54454;SDS011;40364;52.270;10.546;2023-10-31T07:12:05;0.65;;;0.60;;
54454;SDS011;40364;52.270;10.546;2023-10-31T07:14:33;2.08;;;0.70;;
54454;SDS011;40364;52.270;10.546;2023-10-31T07:17:00;2.05;;;0.50;;
54454;SDS011;40364;52.270;10.546;2023-10-31T07:19:26;1.30;;;1.00;;
54454;SDS011;40364;52.270;10.546;2023-10-31T07:21:53;1.13;;;0.70;;
54454;SDS011;40364;52.270;10.546;2023-10-31T07:24:20;2.40;;;0.90;;
54454;SDS011;40364;52.270;10.546;2023-10-31T07:26:49;1.15;;;0.70;;
54454;SDS011;40364;52.270;10.546;2023-10-31T07:29:18;1.13;;;0.80;;
54454;SDS011;40364;52.270;10.546;2023-10-31T07:31:46;1.02;;;0.93;;
54454;SDS011;40364;52.270;10.546;2023-10-31T07:34:12;1.45;;;1.13;;
54454;SDS011;40364;52.270;10.546;2023-10-31T07:36:42;1.55;;;1.10;;
54454;SDS011;40364;52.270;10.546;2023-10-31T07:39:10;1.48;;;1.00;;
54454;SDS011;40364;52.270;10.546;2023-10-31T07:41:38;0.85;;;0.80;;
54454;SDS011;40364;52.270;10.546;2023-10-31T07:44:04;0.88;;;0.88;;
54454;SDS011;40364;52.270;10.546;2023-10-31T07:46:31;1.23;;;0.90;;
54454;SDS011;40364;52.270;10.546;2023-10-31T07:48:59;4.20;;;1.13;;
54454;SDS011;40364;52.270;10.546;2023-10-31T07:51:25;4.35;;;1.23;;
54454;SDS011;40364;52.270;10.546;2023-10-31T07:53:52;4.07;;;1.42;;
54454;SDS011;40364;52.270;10.546;2023-10-31T07:56:19;3.78;;;1.45;;
54454;SDS011;40364;52.270;10.546;2023-10-31T07:58:48;2.60;;;1.60;;
54454;SDS011;40364;52.270;10.546;2023-10-31T08:01:35;2.05;;;1.58;;
54454;SDS011;40364;52.270;10.546;2023-10-31T08:04:39;1.85;;;1.50;;
54454;SDS011;40364;52.270;10.546;2023-10-31T08:07:06;2.20;;;1.50;;
54454;SDS011;40364;52.270;10.546;2023-10-31T08:09:32;4.68;;;1.73;;
54454;SDS011;40364;52.270;10.546;2023-10-31T08:11:59;3.75;;;1.50;;
54454;SDS011;40364;52.270;10.546;2023-10-31T08:14:26;3.05;;;2.03;;
54454;SDS011;40364;52.270;10.546;2023-10-31T08:16:52;5.15;;;2.05;;
54454;SDS011;40364;52.270;10.546;2023-10-31T08:19:19;3.70;;;2.30;;
54454;SDS011;40364;52.270;10.546;2023-10-31T08:21:48;3.97;;;2.20;;
54454;SDS011;40364;52.270;10.546;2023-10-31T08:24:14;2.92;;;1.90;;
54454;SDS011;40364;52.270;10.546;2023-10-31T08:26:41;2.83;;;2.33;;
54454;SDS011;40364;52.270;10.546;2023-10-31T08:29:08;3.83;;;2.38;;
54454;SDS011;40364;52.270;10.546;2023-10-31T08:31:34;4.60;;;2.10;;
54454;SDS011;40364;52.270;10.546;2023-10-31T08:34:01;4.35;;;2.33;;
54454;SDS011;40364;52.270;10.546;2023-10-31T08:36:29;2.55;;;2.00;;
54454;SDS011;40364;52.270;10.546;2023-10-31T08:38:57;3.50;;;2.17;;
54454;SDS011;40364;52.270;10.546;2023-10-31T08:41:24;3.53;;;2.55;;
54454;SDS011;40364;52.270;10.546;2023-10-31T08:43:50;7.40;;;2.42;;
54454;SDS011;40364;52.270;10.546;2023-10-31T08:46:17;4.70;;;2.75;;
54454;SDS011;40364;52.270;10.546;2023-10-31T08:48:43;3.35;;;2.53;;
54454;SDS011;40364;52.270;10.546;2023-10-31T08:51:10;4.88;;;2.47;;
54454;SDS011;40364;52.270;10.546;2023-10-31T08:53:37;5.55;;;2.67;;
54454;SDS011;40364;52.270;10.546;2023-10-31T08:56:05;3.28;;;2.15;;
54454;SDS011;40364;52.270;10.546;2023-10-31T08:58:32;3.45;;;2.42;;
54454;SDS011;40364;52.270;10.546;2023-10-31T09:00:59;5.20;;;2.33;;
54454;SDS011;40364;52.270;10.546;2023-10-31T09:03:26;4.07;;;2.42;;
54454;SDS011;40364;52.270;10.546;2023-10-31T09:05:52;3.88;;;2.17;;
54454;SDS011;40364;52.270;10.546;2023-10-31T09:08:19;3.72;;;1.67;;
54454;SDS011;40364;52.270;10.546;2023-10-31T09:10:46;4.07;;;2.00;;
54454;SDS011;40364;52.270;10.546;2023-10-31T09:13:14;2.25;;;1.20;;
54454;SDS011;40364;52.270;10.546;2023-10-31T09:15:40;4.60;;;1.60;;
54454;SDS011;40364;52.270;10.546;2023-10-31T09:18:07;1.85;;;1.20;;
54454;SDS011;40364;52.270;10.546;2023-10-31T09:20:36;2.53;;;0.93;;
54454;SDS011;40364;52.270;10.546;2023-10-31T09:23:02;1.73;;;1.00;;
54454;SDS011;40364;52.270;10.546;2023-10-31T09:25:30;2.88;;;1.10;;
54454;SDS011;40364;52.270;10.546;2023-10-31T09:27:58;2.45;;;1.00;;
54454;SDS011;40364;52.270;10.546;2023-10-31T09:30:26;0.95;;;0.90;;
54454;SDS011;40364;52.270;10.546;2023-10-31T09:32:53;1.60;;;0.90;;
54454;SDS011;40364;52.270;10.546;2023-10-31T09:35:19;0.90;;;0.70;;
54454;SDS011;40364;52.270;10.546;2023-10-31T09:37:46;0.77;;;0.70;;
54454;SDS011;40364;52.270;10.546;2023-10-31T09:40:14;1.40;;;0.77;;
54454;SDS011;40364;52.270;10.546;2023-10-31T09:42:41;4.82;;;0.80;;
54454;SDS011;40364;52.270;10.546;2023-10-31T09:45:08;0.80;;;0.65;;
54454;SDS011;40364;52.270;10.546;2023-10-31T09:47:36;2.22;;;0.70;;
54454;SDS011;40364;52.270;10.546;2023-10-31T09:50:04;0.52;;;0.52;;
54454;SDS011;40364;52.270;10.546;2023-10-31T09:52:31;2.38;;;0.57;;
54454;SDS011;40364;52.270;10.546;2023-10-31T09:54:58;0.88;;;0.60;;
54454;SDS011;40364;52.270;10.546;2023-10-31T09:57:25;1.52;;;0.50;;
54454;SDS011;40364;52.270;10.546;2023-10-31T09:59:52;1.45;;;0.50;;
54454;SDS011;40364;52.270;10.546;2023-10-31T10:02:19;0.45;;;0.32;;
54454;SDS011;40364;52.270;10.546;2023-10-31T10:04:47;2.58;;;0.50;;
54454;SDS011;40364;52.270;10.546;2023-10-31T10:07:15;1.00;;;0.40;;
54454;SDS011;40364;52.270;10.546;2023-10-31T10:09:43;0.65;;;0.55;;
54454;SDS011;40364;52.270;10.546;2023-10-31T10:12:11;0.65;;;0.43;;
54454;SDS011;40364;52.270;10.546;2023-10-31T10:14:38;1.23;;;0.47;;
54454;SDS011;40364;52.270;10.546;2023-10-31T10:17:14;0.95;;;0.30;;
54454;SDS011;40364;52.270;10.546;2023-10-31T10:19:41;0.22;;;0.22;;
54454;SDS011;40364;52.270;10.546;2023-10-31T10:22:09;0.52;;;0.32;;
54454;SDS011;40364;52.270;10.546;2023-10-31T10:24:39;1.42;;;0.40;;
54454;SDS011;40364;52.270;10.546;2023-10-31T10:27:06;0.52;;;0.30;;
54454;SDS011;40364;52.270;10.546;2023-10-31T10:29:34;1.50;;;0.45;;
54454;SDS011;40364;52.270;10.546;2023-10-31T10:32:01;1.25;;;0.28;;
54454;SDS011;40364;52.270;10.546;2023-10-31T10:34:33;0.60;;;0.30;;
54454;SDS011;40364;52.270;10.546;2023-10-31T10:37:00;0.30;;;0.30;;
54454;SDS011;40364;52.270;10.546;2023-10-31T10:39:32;2.00;;;0.30;;
54454;SDS011;40364;52.270;10.546;2023-10-31T10:42:00;0.20;;;0.20;;
54454;SDS011;40364;52.270;10.546;2023-10-31T10:44:31;0.35;;;0.20;;
54454;SDS011;40364;52.270;10.546;2023-10-31T10:46:59;2.08;;;0.50;;
54454;SDS011;40364;52.270;10.546;2023-10-31T10:49:28;1.42;;;0.30;;
54454;SDS011;40364;52.270;10.546;2023-10-31T10:51:58;0.63;;;0.43;;
54454;SDS011;40364;52.270;10.546;2023-10-31T10:54:31;0.88;;;0.47;;
54454;SDS011;40364;52.270;10.546;2023-10-31T10:57:03;0.28;;;0.28;;
54454;SDS011;40364;52.270;10.546;2023-10-31T10:59:38;2.88;;;0.43;;
54454;SDS011;40364;52.270;10.546;2023-10-31T11:02:07;1.05;;;0.40;;
54454;SDS011;40364;52.270;10.546;2023-10-31T11:04:35;0.20;;;0.20;;
54454;SDS011;40364;52.270;10.546;2023-10-31T11:07:03;0.43;;;0.30;;
54454;SDS011;40364;52.270;10.546;2023-10-31T11:09:32;1.00;;;0.50;;
54454;SDS011;40364;52.270;10.546;2023-10-31T11:11:59;0.25;;;0.20;;
54454;SDS011;40364;52.270;10.546;2023-10-31T11:14:28;0.75;;;0.50;;
54454;SDS011;40364;52.270;10.546;2023-10-31T11:16:57;2.92;;;0.30;;
54454;SDS011;40364;52.270;10.546;2023-10-31T11:19:28;0.80;;;0.22;;
54454;SDS011;40364;52.270;10.546;2023-10-31T11:21:57;0.57;;;0.30;;
54454;SDS011;40364;52.270;10.546;2023-10-31T11:24:26;0.98;;;0.35;;
54454;SDS011;40364;52.270;10.546;2023-10-31T11:26:57;1.73;;;0.45;;
54454;SDS011;40364;52.270;10.546;2023-10-31T11:29:25;3.10;;;0.30;;
54454;SDS011;40364;52.270;10.546;2023-10-31T11:31:53;0.40;;;0.30;;
54454;SDS011;40364;52.270;10.546;2023-10-31T11:34:20;4.15;;;0.65;;
54454;SDS011;40364;52.270;10.546;2023-10-31T11:36:47;1.95;;;0.40;;
54454;SDS011;40364;52.270;10.546;2023-10-31T11:39:14;1.35;;;0.30;;
54454;SDS011;40364;52.270;10.546;2023-10-31T11:41:45;1.25;;;0.50;;
54454;SDS011;40364;52.270;10.546;2023-10-31T11:44:16;1.02;;;0.45;;
54454;SDS011;40364;52.270;10.546;2023-10-31T11:46:43;0.85;;;0.40;;
54454;SDS011;40364;52.270;10.546;2023-10-31T11:49:14;0.68;;;0.45;;
54454;SDS011;40364;52.270;10.546;2023-10-31T11:51:40;1.25;;;0.55;;
54454;SDS011;40364;52.270;10.546;2023-10-31T11:54:10;0.30;;;0.30;;
54454;SDS011;40364;52.270;10.546;2023-10-31T11:56:39;1.20;;;0.50;;
54454;SDS011;40364;52.270;10.546;2023-10-31T11:59:05;1.02;;;0.50;;
54454;SDS011;40364;52.270;10.546;2023-10-31T12:01:34;1.00;;;0.45;;
54454;SDS011;40364;52.270;10.546;2023-10-31T12:04:20;0.90;;;0.50;;
54454;SDS011;40364;52.270;10.546;2023-10-31T12:06:56;2.88;;;0.65;;
54454;SDS011;40364;52.270;10.546;2023-10-31T12:11:49;0.60;;;0.57;;
54454;SDS011;40364;52.270;10.546;2023-10-31T12:14:18;0.68;;;0.57;;
54454;SDS011;40364;52.270;10.546;2023-10-31T12:16:46;1.83;;;0.57;;
54454;SDS011;40364;52.270;10.546;2023-10-31T12:19:13;3.83;;;0.90;;
54454;SDS011;40364;52.270;10.546;2023-10-31T12:21:40;5.80;;;0.60;;
54454;SDS011;40364;52.270;10.546;2023-10-31T12:24:09;4.63;;;0.70;;
54454;SDS011;40364;52.270;10.546;2023-10-31T12:26:37;3.20;;;0.60;;
54454;SDS011;40364;52.270;10.546;2023-10-31T12:29:08;2.85;;;0.90;;
54454;SDS011;40364;52.270;10.546;2023-10-31T12:31:38;1.88;;;0.90;;
54454;SDS011;40364;52.270;10.546;2023-10-31T12:34:07;2.53;;;1.05;;
54454;SDS011;40364;52.270;10.546;2023-10-31T12:36:34;1.67;;;0.70;;
54454;SDS011;40364;52.270;10.546;2023-10-31T12:39:02;1.65;;;1.08;;
54454;SDS011;40364;52.270;10.546;2023-10-31T12:41:31;3.80;;;1.60;;
54454;SDS011;40364;52.270;10.546;2023-10-31T12:43:58;3.55;;;1.40;;
54454;SDS011;40364;52.270;10.546;2023-10-31T12:46:25;2.63;;;1.20;;
54454;SDS011;40364;52.270;10.546;2023-10-31T12:48:54;2.22;;;1.13;;
54454;SDS011;40364;52.270;10.546;2023-10-31T12:51:22;3.28;;;1.67;;
54454;SDS011;40364;52.270;10.546;2023-10-31T12:53:49;2.85;;;1.40;;
54454;SDS011;40364;52.270;10.546;2023-10-31T12:59:02;1.08;;;0.80;;
54454;SDS011;40364;52.270;10.546;2023-10-31T13:01:28;2.47;;;1.25;;
54454;SDS011;40364;52.270;10.546;2023-10-31T13:03:57;1.45;;;1.10;;
54454;SDS011;40364;52.270;10.546;2023-10-31T13:06:25;2.22;;;1.17;;
54454;SDS011;40364;52.270;10.546;2023-10-31T13:08:54;2.25;;;1.10;;
54454;SDS011;40364;52.270;10.546;2023-10-31T13:11:21;4.43;;;1.83;;
54454;SDS011;40364;52.270;10.546;2023-10-31T13:13:50;3.15;;;1.50;;
54454;SDS011;40364;52.270;10.546;2023-10-31T13:16:17;1.38;;;1.20;;
54454;SDS011;40364;52.270;10.546;2023-10-31T13:18:44;3.20;;;1.77;;
54454;SDS011;40364;52.270;10.546;2023-10-31T13:21:11;2.40;;;1.85;;
54454;SDS011;40364;52.270;10.546;2023-10-31T13:23:41;6.25;;;2.00;;
54454;SDS011;40364;52.270;10.546;2023-10-31T13:26:10;2.92;;;2.15;;
54454;SDS011;40364;52.270;10.546;2023-10-31T13:28:36;4.70;;;2.38;;
54454;SDS011;40364;52.270;10.546;2023-10-31T13:31:04;2.17;;;1.92;;
54454;SDS011;40364;52.270;10.546;2023-10-31T13:33:31;4.90;;;2.30;;
54454;SDS011;40364;52.270;10.546;2023-10-31T13:35:58;4.43;;;2.40;;
54454;SDS011;40364;52.270;10.546;2023-10-31T13:38:25;4.30;;;2.60;;
54454;SDS011;40364;52.270;10.546;2023-10-31T13:40:53;3.17;;;2.33;;
54454;SDS011;40364;52.270;10.546;2023-10-31T13:43:19;3.60;;;2.55;;
54454;SDS011;40364;52.270;10.546;2023-10-31T13:48:14;4.43;;;2.10;;
54454;SDS011;40364;52.270;10.546;2023-10-31T13:50:40;3.42;;;2.10;;
54454;SDS011;40364;52.270;10.546;2023-10-31T13:53:07;3.33;;;2.10;;
54454;SDS011;40364;52.270;10.546;2023-10-31T13:55:34;3.38;;;2.10;;
54454;SDS011;40364;52.270;10.546;2023-10-31T13:58:03;2.55;;;1.90;;
54454;SDS011;40364;52.270;10.546;2023-10-31T14:00:29;2.95;;;2.00;;
54454;SDS011;40364;52.270;10.546;2023-10-31T14:02:56;2.90;;;2.00;;
54454;SDS011;40364;52.270;10.546;2023-10-31T14:05:23;2.78;;;1.77;;
54454;SDS011;40364;52.270;10.546;2023-10-31T14:07:49;2.92;;;1.90;;
54454;SDS011;40364;52.270;10.546;2023-10-31T14:10:17;4.20;;;1.90;;
54454;SDS011;40364;52.270;10.546;2023-10-31T14:12:44;4.30;;;1.60;;
54454;SDS011;40364;52.270;10.546;2023-10-31T14:15:15;3.10;;;2.00;;
54454;SDS011;40364;52.270;10.546;2023-10-31T14:17:42;4.07;;;1.85;;
54454;SDS011;40364;52.270;10.546;2023-10-31T14:20:10;1.60;;;1.50;;
54454;SDS011;40364;52.270;10.546;2023-10-31T14:22:37;4.10;;;1.90;;
54454;SDS011;40364;52.270;10.546;2023-10-31T14:25:04;2.58;;;1.52;;
54454;SDS011;40364;52.270;10.546;2023-10-31T14:27:32;5.40;;;1.60;;
54454;SDS011;40364;52.270;10.546;2023-10-31T14:29:59;1.90;;;1.70;;
54454;SDS011;40364;52.270;10.546;2023-10-31T14:32:27;2.35;;;2.00;;
54454;SDS011;40364;52.270;10.546;2023-10-31T14:34:53;2.13;;;1.45;;
54454;SDS011;40364;52.270;10.546;2023-10-31T14:37:20;2.38;;;1.67;;
54454;SDS011;40364;52.270;10.546;2023-10-31T14:39:47;2.83;;;1.60;;
54454;SDS011;40364;52.270;10.546;2023-10-31T14:42:13;4.38;;;1.73;;
54454;SDS011;40364;52.270;10.546;2023-10-31T14:44:40;1.98;;;1.42;;